sensor_id;sensor_type;location;lat;lon;timestamp;pressure;altitude;pressure_sealevel;temperature;humidity
59170;BME280;52474;52.236;5.114;2024-03-07T00:00:07;102688.06;;;3.70;100.00
59170;BME280;52474;52.236;5.114;2024-03-07T00:02:41;102687.25;;;3.68;100.00
59170;BME280;52474;52.236;5.114;2024-03-07T00:05:09;102687.38;;;3.63;100.00
59170;BME280;52474;52.236;5.114;2024-03-07T00:07:34;102681.31;;;3.61;100.00
59170;BME280;52474;52.236;5.114;2024-03-07T00:10:01;102690.84;;;3.64;100.00
59170;BME280;52474;52.236;5.114;2024-03-07T00:12:29;102684.84;;;3.60;100.00
59170;BME280;52474;52.236;5.114;2024-03-07T00:14:55;102683.16;;;3.58;100.00
59170;BME280;52474;52.236;5.114;2024-03-07T00:17:21;102680.63;;;3.55;100.00
59170;BME280;52474;52.236;5.114;2024-03-07T00:19:48;102692.84;;;3.54;100.00
59170;BME280;52474;52.236;5.114;2024-03-07T00:22:14;102685.19;;;3.47;100.00
59170;BME280;52474;52.236;5.114;2024-03-07T00:24:40;102695.63;;;3.48;100.00
59170;BME280;52474;52.236;5.114;2024-03-07T00:27:06;102684.34;;;3.44;100.00
59170;BME280;52474;52.236;5.114;2024-03-07T00:29:32;102691.41;;;3.42;100.00
59170;BME280;52474;52.236;5.114;2024-03-07T00:32:01;102686.19;;;3.42;100.00
59170;BME280;52474;52.236;5.114;2024-03-07T00:34:27;102693.16;;;3.42;100.00
59170;BME280;52474;52.236;5.114;2024-03-07T00:36:53;102686.31;;;3.38;100.00
59170;BME280;52474;52.236;5.114;2024-03-07T00:39:18;102688.19;;;3.33;100.00
59170;BME280;52474;52.236;5.114;2024-03-07T00:41:45;102692.50;;;3.34;100.00
59170;BME280;52474;52.236;5.114;2024-03-07T00:44:11;102678.66;;;3.30;100.00
59170;BME280;52474;52.236;5.114;2024-03-07T00:46:37;102690.09;;;3.26;100.00
59170;BME280;52474;52.236;5.114;2024-03-07T00:49:03;102688.31;;;3.27;100.00
59170;BME280;52474;52.236;5.114;2024-03-07T00:51:29;102684.13;;;3.19;100.00
59170;BME280;52474;52.236;5.114;2024-03-07T00:53:55;102690.31;;;3.17;100.00
59170;BME280;52474;52.236;5.114;2024-03-07T00:56:21;102676.56;;;3.09;100.00
59170;BME280;52474;52.236;5.114;2024-03-07T00:58:50;102669.09;;;2.93;100.00
59170;BME280;52474;52.236;5.114;2024-03-07T01:01:17;102691.50;;;3.04;100.00
59170;BME280;52474;52.236;5.114;2024-03-07T01:03:44;102688.97;;;3.00;100.00
59170;BME280;52474;52.236;5.114;2024-03-07T01:06:10;102690.78;;;2.97;100.00
59170;BME280;52474;52.236;5.114;2024-03-07T01:08:37;102687.41;;;2.93;100.00
59170;BME280;52474;52.236;5.114;2024-03-07T01:11:04;102670.94;;;2.88;100.00
59170;BME280;52474;52.236;5.114;2024-03-07T01:13:38;102677.50;;;3.05;100.00
59170;BME280;52474;52.236;5.114;2024-03-07T01:16:05;102677.59;;;3.01;100.00
59170;BME280;52474;52.236;5.114;2024-03-07T01:18:31;102669.94;;;2.94;100.00
59170;BME280;52474;52.236;5.114;2024-03-07T01:21:01;102675.94;;;2.97;100.00
59170;BME280;52474;52.236;5.114;2024-03-07T01:23:26;102669.03;;;2.95;100.00
59170;BME280;52474;52.236;5.114;2024-03-07T01:25:55;102680.28;;;2.98;100.00
59170;BME280;52474;52.236;5.114;2024-03-07T01:28:28;102675.09;;;2.97;100.00
59170;BME280;52474;52.236;5.114;2024-03-07T01:30:57;102670.03;;;2.89;100.00
59170;BME280;52474;52.236;5.114;2024-03-07T01:33:23;102670.94;;;2.88;100.00
59170;BME280;52474;52.236;5.114;2024-03-07T01:35:49;102669.38;;;2.81;100.00
59170;BME280;52474;52.236;5.114;2024-03-07T01:38:15;102671.94;;;2.83;100.00
59170;BME280;52474;52.236;5.114;2024-03-07T01:40:43;102672.88;;;2.80;100.00
59170;BME280;52474;52.236;5.114;2024-03-07T01:43:09;102674.72;;;2.76;100.00
59170;BME280;52474;52.236;5.114;2024-03-07T01:45:36;102667.72;;;2.77;100.00
59170;BME280;52474;52.236;5.114;2024-03-07T01:48:04;102659.22;;;2.67;100.00
59170;BME280;52474;52.236;5.114;2024-03-07T01:50:30;102663.78;;;2.57;100.00
59170;BME280;52474;52.236;5.114;2024-03-07T01:52:56;102661.25;;;2.54;100.00
59170;BME280;52474;52.236;5.114;2024-03-07T01:55:22;102662.09;;;2.56;100.00
59170;BME280;52474;52.236;5.114;2024-03-07T01:57:49;102651.06;;;2.44;100.00
59170;BME280;52474;52.236;5.114;2024-03-07T02:00:15;102664.16;;;2.42;100.00
59170;BME280;52474;52.236;5.114;2024-03-07T02:02:42;102665.03;;;2.41;100.00
59170;BME280;52474;52.236;5.114;2024-03-07T02:05:08;102665.19;;;2.33;100.00
59170;BME280;52474;52.236;5.114;2024-03-07T02:07:33;102664.25;;;2.38;100.00
59170;BME280;52474;52.236;5.114;2024-03-07T02:10:02;102655.41;;;2.43;100.00
59170;BME280;52474;52.236;5.114;2024-03-07T02:12:29;102650.38;;;2.34;100.00
59170;BME280;52474;52.236;5.114;2024-03-07T02:14:58;102656.31;;;2.41;100.00
59170;BME280;52474;52.236;5.114;2024-03-07T02:17:25;102654.75;;;2.33;100.00
59170;BME280;52474;52.236;5.114;2024-03-07T02:19:50;102663.34;;;2.39;100.00
59170;BME280;52474;52.236;5.114;2024-03-07T02:22:17;102650.16;;;2.43;100.00
59170;BME280;52474;52.236;5.114;2024-03-07T02:24:42;102649.97;;;2.52;100.00
59170;BME280;52474;52.236;5.114;2024-03-07T02:27:08;102651.66;;;2.53;100.00
59170;BME280;52474;52.236;5.114;2024-03-07T02:29:35;102649.13;;;2.52;100.00
59170;BME280;52474;52.236;5.114;2024-03-07T02:32:02;102645.53;;;2.56;100.00
59170;BME280;52474;52.236;5.114;2024-03-07T02:34:28;102655.19;;;2.52;100.00
59170;BME280;52474;52.236;5.114;2024-03-07T02:36:54;102650.91;;;2.50;100.00
59170;BME280;52474;52.236;5.114;2024-03-07T02:39:20;102656.84;;;2.56;100.00
59170;BME280;52474;52.236;5.114;2024-03-07T02:41:46;102652.47;;;2.58;100.00
59170;BME280;52474;52.236;5.114;2024-03-07T02:44:13;102654.19;;;2.58;100.00
59170;BME280;52474;52.236;5.114;2024-03-07T02:46:40;102652.28;;;2.66;100.00
59170;BME280;52474;52.236;5.114;2024-03-07T02:49:06;102647.00;;;2.68;100.00
59170;BME280;52474;52.236;5.114;2024-03-07T02:51:31;102639.88;;;2.74;100.00
59170;BME280;52474;52.236;5.114;2024-03-07T02:53:57;102648.16;;;2.93;100.00
59170;BME280;52474;52.236;5.114;2024-03-07T02:56:24;102641.06;;;2.97;100.00
59170;BME280;52474;52.236;5.114;2024-03-07T02:58:51;102643.47;;;3.06;100.00
59170;BME280;52474;52.236;5.114;2024-03-07T03:01:17;102633.75;;;3.10;100.00
59170;BME280;52474;52.236;5.114;2024-03-07T03:03:43;102640.63;;;3.15;100.00
59170;BME280;52474;52.236;5.114;2024-03-07T03:06:09;102631.03;;;3.14;100.00
59170;BME280;52474;52.236;5.114;2024-03-07T03:08:34;102624.00;;;3.16;100.00
59170;BME280;52474;52.236;5.114;2024-03-07T03:11:01;102621.28;;;3.19;100.00
59170;BME280;52474;52.236;5.114;2024-03-07T03:13:27;102630.78;;;3.23;100.00
59170;BME280;52474;52.236;5.114;2024-03-07T03:15:56;102624.72;;;3.23;100.00
59170;BME280;52474;52.236;5.114;2024-03-07T03:18:22;102618.84;;;3.13;100.00
59170;BME280;52474;52.236;5.114;2024-03-07T03:20:49;102606.94;;;3.00;100.00
59170;BME280;52474;52.236;5.114;2024-03-07T03:23:15;102614.00;;;2.98;100.00
59170;BME280;52474;52.236;5.114;2024-03-07T03:25:41;102610.78;;;2.87;100.00
59170;BME280;52474;52.236;5.114;2024-03-07T03:28:08;102620.47;;;2.83;100.00
59170;BME280;52474;52.236;5.114;2024-03-07T03:30:41;102616.28;;;2.76;100.00
59170;BME280;52474;52.236;5.114;2024-03-07T03:33:06;102619.03;;;2.70;100.00
59170;BME280;52474;52.236;5.114;2024-03-07T03:35:33;102617.16;;;2.75;100.00
59170;BME280;52474;52.236;5.114;2024-03-07T03:37:59;102619.13;;;2.67;100.00
59170;BME280;52474;52.236;5.114;2024-03-07T03:40:25;102606.97;;;2.64;100.00
59170;BME280;52474;52.236;5.114;2024-03-07T03:42:51;102609.69;;;2.60;100.00
59170;BME280;52474;52.236;5.114;2024-03-07T03:45:17;102610.56;;;2.60;100.00
59170;BME280;52474;52.236;5.114;2024-03-07T03:47:43;102604.66;;;2.52;100.00
59170;BME280;52474;52.236;5.114;2024-03-07T03:50:11;102600.31;;;2.51;100.00
59170;BME280;52474;52.236;5.114;2024-03-07T03:52:37;102604.84;;;2.44;100.00
59170;BME280;52474;52.236;5.114;2024-03-07T03:55:04;102604.84;;;2.44;100.00
59170;BME280;52474;52.236;5.114;2024-03-07T03:57:31;102598.78;;;2.41;100.00
59170;BME280;52474;52.236;5.114;2024-03-07T03:59:57;102603.16;;;2.42;100.00
59170;BME280;52474;52.236;5.114;2024-03-07T04:02:24;102597.91;;;2.42;100.00
59170;BME280;52474;52.236;5.114;2024-03-07T04:04:50;102602.31;;;2.40;100.00
59170;BME280;52474;52.236;5.114;2024-03-07T04:07:20;102601.56;;;2.34;100.00
59170;BME280;52474;52.236;5.114;2024-03-07T04:09:46;102596.25;;;2.38;100.00
59170;BME280;52474;52.236;5.114;2024-03-07T04:12:13;102593.66;;;2.38;100.00
59170;BME280;52474;52.236;5.114;2024-03-07T04:14:42;102585.88;;;2.34;100.00
59170;BME280;52474;52.236;5.114;2024-03-07T04:17:09;102593.75;;;2.33;100.00
59170;BME280;52474;52.236;5.114;2024-03-07T04:19:39;102591.97;;;2.35;100.00
59170;BME280;52474;52.236;5.114;2024-03-07T04:22:05;102598.09;;;2.34;100.00
59170;BME280;52474;52.236;5.114;2024-03-07T04:24:31;102598.03;;;2.37;100.00
59170;BME280;52474;52.236;5.114;2024-03-07T04:27:04;102594.47;;;2.40;100.00
59170;BME280;52474;52.236;5.114;2024-03-07T04:29:33;102593.66;;;2.38;100.00
59170;BME280;52474;52.236;5.114;2024-03-07T04:32:00;102595.50;;;2.34;100.00
59170;BME280;52474;52.236;5.114;2024-03-07T04:34:30;102599.81;;;2.35;100.00
59170;BME280;52474;52.236;5.114;2024-03-07T04:36:59;102599.88;;;2.32;100.00
59170;BME280;52474;52.236;5.114;2024-03-07T04:39:28;102601.59;;;2.33;100.00
59170;BME280;52474;52.236;5.114;2024-03-07T04:42:04;102599.94;;;2.29;100.00
59170;BME280;52474;52.236;5.114;2024-03-07T04:44:32;102605.16;;;2.29;100.00
59170;BME280;52474;52.236;5.114;2024-03-07T04:46:59;102598.13;;;2.32;100.00
59170;BME280;52474;52.236;5.114;2024-03-07T04:49:27;102596.53;;;2.25;100.00
59170;BME280;52474;52.236;5.114;2024-03-07T04:51:54;102600.84;;;2.26;100.00
59170;BME280;52474;52.236;5.114;2024-03-07T04:54:21;102593.84;;;2.28;100.00
59170;BME280;52474;52.236;5.114;2024-03-07T04:56:48;102598.22;;;2.28;100.00
59170;BME280;52474;52.236;5.114;2024-03-07T04:59:15;102602.69;;;2.24;100.00
59170;BME280;52474;52.236;5.114;2024-03-07T05:01:41;102597.47;;;2.23;100.00
59170;BME280;52474;52.236;5.114;2024-03-07T05:04:07;102592.31;;;2.20;100.00
59170;BME280;52474;52.236;5.114;2024-03-07T05:06:34;102593.94;;;2.24;100.00
59170;BME280;52474;52.236;5.114;2024-03-07T05:09:01;102590.56;;;2.19;100.00
59170;BME280;52474;52.236;5.114;2024-03-07T05:11:30;102596.72;;;2.18;100.00
59170;BME280;52474;52.236;5.114;2024-03-07T05:14:00;102593.19;;;2.19;100.00
59170;BME280;52474;52.236;5.114;2024-03-07T05:16:27;102592.25;;;2.23;100.00
59170;BME280;52474;52.236;5.114;2024-03-07T05:18:53;102593.94;;;2.25;100.00
59170;BME280;52474;52.236;5.114;2024-03-07T05:21:19;102585.31;;;2.20;100.00
59170;BME280;52474;52.236;5.114;2024-03-07T05:23:57;102592.25;;;2.21;100.00
59170;BME280;52474;52.236;5.114;2024-03-07T05:26:24;102595.78;;;2.20;100.00
59170;BME280;52474;52.236;5.114;2024-03-07T05:28:50;102594.19;;;2.14;100.00
59170;BME280;52474;52.236;5.114;2024-03-07T05:31:17;102582.22;;;2.03;100.00
59170;BME280;52474;52.236;5.114;2024-03-07T05:33:44;102589.03;;;2.10;100.00
59170;BME280;52474;52.236;5.114;2024-03-07T05:36:09;102600.28;;;2.13;100.00
59170;BME280;52474;52.236;5.114;2024-03-07T05:38:42;102602.22;;;2.05;100.00
59170;BME280;52474;52.236;5.114;2024-03-07T05:41:11;102600.47;;;2.04;100.00
59170;BME280;52474;52.236;5.114;2024-03-07T05:43:38;102589.38;;;1.95;100.00
59170;BME280;52474;52.236;5.114;2024-03-07T05:46:04;102598.84;;;1.99;100.00
59170;BME280;52474;52.236;5.114;2024-03-07T05:48:31;102592.78;;;1.98;100.00
59170;BME280;52474;52.236;5.114;2024-03-07T05:50:57;102591.09;;;1.94;100.00
59170;BME280;52474;52.236;5.114;2024-03-07T05:53:24;102599.66;;;2.02;100.00
59170;BME280;52474;52.236;5.114;2024-03-07T05:55:50;102599.63;;;2.04;100.00
59170;BME280;52474;52.236;5.114;2024-03-07T05:58:16;102590.91;;;2.05;100.00
59170;BME280;52474;52.236;5.114;2024-03-07T06:00:46;102588.28;;;2.05;100.00
59170;BME280;52474;52.236;5.114;2024-03-07T06:03:16;102586.56;;;2.04;100.00
59170;BME280;52474;52.236;5.114;2024-03-07T06:05:43;102594.28;;;2.10;100.00
59170;BME280;52474;52.236;5.114;2024-03-07T06:08:17;102590.91;;;2.05;100.00
59170;BME280;52474;52.236;5.114;2024-03-07T06:10:43;102585.78;;;1.99;100.00
59170;BME280;52474;52.236;5.114;2024-03-07T06:13:11;102580.53;;;2.00;100.00
59170;BME280;52474;52.236;5.114;2024-03-07T06:15:38;102588.13;;;2.11;100.00
59170;BME280;52474;52.236;5.114;2024-03-07T06:18:05;102591.59;;;2.13;100.00
59170;BME280;52474;52.236;5.114;2024-03-07T06:20:31;102591.69;;;2.08;100.00
59170;BME280;52474;52.236;5.114;2024-03-07T06:22:57;102595.97;;;2.12;100.00
59170;BME280;52474;52.236;5.114;2024-03-07T06:25:23;102595.97;;;2.12;100.00
59170;BME280;52474;52.236;5.114;2024-03-07T06:28:01;102590.69;;;2.14;100.00
59170;BME280;52474;52.236;5.114;2024-03-07T06:30:38;102587.19;;;2.15;100.00
59170;BME280;52474;52.236;5.114;2024-03-07T06:33:05;102593.09;;;2.23;100.00
59170;BME280;52474;52.236;5.114;2024-03-07T06:35:31;102577.59;;;2.15;100.00
59170;BME280;52474;52.236;5.114;2024-03-07T06:37:56;102594.94;;;2.20;100.00
59170;BME280;52474;52.236;5.114;2024-03-07T06:40:22;102604.34;;;2.27;100.00
59170;BME280;52474;52.236;5.114;2024-03-07T06:42:48;102601.66;;;2.31;100.00
59170;BME280;52474;52.236;5.114;2024-03-07T06:45:14;102583.34;;;2.31;100.00
59170;BME280;52474;52.236;5.114;2024-03-07T06:47:41;102603.97;;;2.44;100.00
59170;BME280;52474;52.236;5.114;2024-03-07T06:50:07;102598.63;;;2.48;100.00
59170;BME280;52474;52.236;5.114;2024-03-07T06:52:35;102594.22;;;2.50;100.00
59170;BME280;52474;52.236;5.114;2024-03-07T06:55:04;102594.22;;;2.50;100.00
59170;BME280;52474;52.236;5.114;2024-03-07T06:57:31;102596.66;;;2.58;100.00
59170;BME280;52474;52.236;5.114;2024-03-07T06:59:57;102596.47;;;2.66;100.00
59170;BME280;52474;52.236;5.114;2024-03-07T07:02:22;102598.13;;;2.68;100.00
59170;BME280;52474;52.236;5.114;2024-03-07T07:04:48;102588.59;;;2.67;100.00
59170;BME280;52474;52.236;5.114;2024-03-07T07:07:14;102585.88;;;2.72;100.00
59170;BME280;52474;52.236;5.114;2024-03-07T07:09:40;102582.31;;;2.74;100.00
59170;BME280;52474;52.236;5.114;2024-03-07T07:12:06;102594.13;;;2.91;100.00
59170;BME280;52474;52.236;5.114;2024-03-07T07:14:32;102597.50;;;2.94;100.00
59170;BME280;52474;52.236;5.114;2024-03-07T07:16:57;102588.81;;;2.94;100.00
59170;BME280;52474;52.236;5.114;2024-03-07T07:19:24;102584.41;;;2.94;100.00
59170;BME280;52474;52.236;5.114;2024-03-07T07:21:50;102585.16;;;2.99;100.00
59170;BME280;52474;52.236;5.114;2024-03-07T07:24:28;102577.06;;;3.09;100.00
59170;BME280;52474;52.236;5.114;2024-03-07T07:26:55;102581.25;;;3.16;100.00
59170;BME280;52474;52.236;5.114;2024-03-07T07:29:21;102584.72;;;3.16;100.00
59170;BME280;52474;52.236;5.114;2024-03-07T07:31:49;102584.59;;;3.22;100.00
59170;BME280;52474;52.236;5.114;2024-03-07T07:34:15;102586.28;;;3.23;100.00
59170;BME280;52474;52.236;5.114;2024-03-07T07:36:40;102583.34;;;3.36;100.00
59170;BME280;52474;52.236;5.114;2024-03-07T07:39:07;102582.38;;;3.38;100.00
59170;BME280;52474;52.236;5.114;2024-03-07T07:41:42;102581.41;;;3.42;100.00
59170;BME280;52474;52.236;5.114;2024-03-07T07:44:08;102577.91;;;3.42;100.00
59170;BME280;52474;52.236;5.114;2024-03-07T07:46:34;102572.53;;;3.48;100.00
59170;BME280;52474;52.236;5.114;2024-03-07T07:49:03;102578.50;;;3.53;100.00
59170;BME280;52474;52.236;5.114;2024-03-07T07:51:29;102570.53;;;3.56;100.00
59170;BME280;52474;52.236;5.114;2024-03-07T07:53:55;102583.88;;;3.78;100.00
59170;BME280;52474;52.236;5.114;2024-03-07T07:56:22;102583.06;;;3.76;100.00
59170;BME280;52474;52.236;5.114;2024-03-07T07:58:48;102577.66;;;3.82;100.00
59170;BME280;52474;52.236;5.114;2024-03-07T08:01:14;102582.44;;;3.98;100.00
59170;BME280;52474;52.236;5.114;2024-03-07T08:03:43;102582.72;;;3.88;100.00
59170;BME280;52474;52.236;5.114;2024-03-07T08:06:09;102580.66;;;3.98;100.00
59170;BME280;52474;52.236;5.114;2024-03-07T08:08:35;102580.84;;;4.22;100.00
59170;BME280;52474;52.236;5.114;2024-03-07T08:11:00;102578.63;;;4.08;100.00
59170;BME280;52474;52.236;5.114;2024-03-07T08:13:26;102575.94;;;4.11;100.00
59170;BME280;52474;52.236;5.114;2024-03-07T08:15:52;102578.56;;;4.11;100.00
59170;BME280;52474;52.236;5.114;2024-03-07T08:18:20;102569.06;;;4.07;100.00
59170;BME280;52474;52.236;5.114;2024-03-07T08:20:46;102579.50;;;4.37;100.00
59170;BME280;52474;52.236;5.114;2024-03-07T08:23:12;102574.50;;;4.29;100.00
59170;BME280;52474;52.236;5.114;2024-03-07T08:25:38;102580.19;;;4.43;100.00
59170;BME280;52474;52.236;5.114;2024-03-07T08:28:06;102586.19;;;4.73;100.00
59170;BME280;52474;52.236;5.114;2024-03-07T08:30:32;102570.78;;;4.89;100.00
59170;BME280;52474;52.236;5.114;2024-03-07T08:32:58;102574.63;;;4.79;100.00
59170;BME280;52474;52.236;5.114;2024-03-07T08:35:24;102577.94;;;4.84;100.00
59170;BME280;52474;52.236;5.114;2024-03-07T08:37:52;102575.41;;;4.83;100.00
59170;BME280;52474;52.236;5.114;2024-03-07T08:40:23;102564.69;;;4.89;100.00
59170;BME280;52474;52.236;5.114;2024-03-07T08:42:58;102570.72;;;5.18;100.00
59170;BME280;52474;52.236;5.114;2024-03-07T08:45:25;102570.28;;;5.30;100.00
59170;BME280;52474;52.236;5.114;2024-03-07T08:47:53;102572.94;;;5.28;100.00
59170;BME280;52474;52.236;5.114;2024-03-07T08:50:20;102574.19;;;5.18;100.00
59170;BME280;52474;52.236;5.114;2024-03-07T08:52:47;102577.91;;;5.36;100.00
59170;BME280;52474;52.236;5.114;2024-03-07T08:55:19;102579.22;;;5.49;100.00
59170;BME280;52474;52.236;5.114;2024-03-07T08:57:44;102577.63;;;5.69;100.00
59170;BME280;52474;52.236;5.114;2024-03-07T09:00:13;102577.59;;;5.94;100.00
59170;BME280;52474;52.236;5.114;2024-03-07T09:02:59;102572.63;;;7.56;100.00
59170;BME280;52474;52.236;5.114;2024-03-07T09:05:25;102574.66;;;7.49;100.00
59170;BME280;52474;52.236;5.114;2024-03-07T09:07:53;102571.09;;;11.78;100.00
59170;BME280;52474;52.236;5.114;2024-03-07T09:10:20;102577.56;;;12.57;100.00
59170;BME280;52474;52.236;5.114;2024-03-07T09:12:48;102588.63;;;13.17;100.00
59170;BME280;52474;52.236;5.114;2024-03-07T09:15:15;102578.28;;;14.26;100.00
59170;BME280;52474;52.236;5.114;2024-03-07T09:17:42;102579.53;;;13.46;100.00
59170;BME280;52474;52.236;5.114;2024-03-07T09:20:09;102573.00;;;14.85;100.00
59170;BME280;52474;52.236;5.114;2024-03-07T09:22:43;102587.72;;;15.13;100.00
59170;BME280;52474;52.236;5.114;2024-03-07T09:25:09;102571.59;;;16.81;100.00
59170;BME280;52474;52.236;5.114;2024-03-07T09:27:36;102568.41;;;17.69;100.00
59170;BME280;52474;52.236;5.114;2024-03-07T09:30:04;102561.22;;;18.10;100.00
59170;BME280;52474;52.236;5.114;2024-03-07T09:32:30;102565.47;;;16.90;100.00
59170;BME280;52474;52.236;5.114;2024-03-07T09:34:58;102564.94;;;18.29;100.00
59170;BME280;52474;52.236;5.114;2024-03-07T09:37:25;102563.38;;;18.55;100.00
59170;BME280;52474;52.236;5.114;2024-03-07T09:39:51;102554.06;;;18.98;100.00
59170;BME280;52474;52.236;5.114;2024-03-07T09:42:17;102558.53;;;20.28;100.00
59170;BME280;52474;52.236;5.114;2024-03-07T09:44:45;102549.47;;;20.83;100.00
59170;BME280;52474;52.236;5.114;2024-03-07T09:47:13;102554.84;;;20.29;100.00
59170;BME280;52474;52.236;5.114;2024-03-07T09:49:39;102560.84;;;20.41;100.00
59170;BME280;52474;52.236;5.114;2024-03-07T09:52:06;102552.84;;;19.67;98.21
59170;BME280;52474;52.236;5.114;2024-03-07T09:54:34;102556.06;;;20.52;100.00
59170;BME280;52474;52.236;5.114;2024-03-07T09:57:02;102546.91;;;22.84;94.67
59170;BME280;52474;52.236;5.114;2024-03-07T09:59:28;102552.31;;;22.35;89.64
59170;BME280;52474;52.236;5.114;2024-03-07T10:01:57;102557.34;;;21.02;86.21
59170;BME280;52474;52.236;5.114;2024-03-07T10:04:31;102548.09;;;22.81;84.32
59170;BME280;52474;52.236;5.114;2024-03-07T10:07:02;102544.53;;;21.56;78.67
59170;BME280;52474;52.236;5.114;2024-03-07T10:09:29;102540.84;;;22.90;76.45
59170;BME280;52474;52.236;5.114;2024-03-07T10:11:58;102552.81;;;23.12;74.38
59170;BME280;52474;52.236;5.114;2024-03-07T10:14:24;102548.91;;;21.65;70.68
59170;BME280;52474;52.236;5.114;2024-03-07T10:16:53;102530.47;;;23.26;74.75
59170;BME280;52474;52.236;5.114;2024-03-07T10:19:19;102552.03;;;24.13;66.99
59170;BME280;52474;52.236;5.114;2024-03-07T10:21:44;102542.41;;;24.11;67.47
59170;BME280;52474;52.236;5.114;2024-03-07T10:24:10;102546.78;;;22.53;63.37
59170;BME280;52474;52.236;5.114;2024-03-07T10:26:40;102545.94;;;21.85;67.19
59170;BME280;52474;52.236;5.114;2024-03-07T10:29:08;102531.19;;;21.55;63.21
59170;BME280;52474;52.236;5.114;2024-03-07T10:31:35;102539.91;;;23.30;62.97
59170;BME280;52474;52.236;5.114;2024-03-07T10:34:03;102527.47;;;20.69;69.46
59170;BME280;52474;52.236;5.114;2024-03-07T10:36:32;102526.00;;;21.61;66.94
59170;BME280;52474;52.236;5.114;2024-03-07T10:38:59;102525.88;;;23.43;62.08
59170;BME280;52474;52.236;5.114;2024-03-07T10:41:35;102506.44;;;21.51;62.35
59170;BME280;52474;52.236;5.114;2024-03-07T10:44:04;102515.09;;;20.05;70.16
59170;BME280;52474;52.236;5.114;2024-03-07T10:46:32;102505.03;;;22.14;67.81
59170;BME280;52474;52.236;5.114;2024-03-07T10:49:00;102515.53;;;22.58;61.40
59170;BME280;52474;52.236;5.114;2024-03-07T10:51:40;102508.97;;;22.44;62.66
59170;BME280;52474;52.236;5.114;2024-03-07T10:54:33;102512.47;;;22.94;59.91
59170;BME280;52474;52.236;5.114;2024-03-07T10:57:31;102515.72;;;21.65;59.76
59170;BME280;52474;52.236;5.114;2024-03-07T11:00:03;102519.22;;;19.81;67.65
59170;BME280;52474;52.236;5.114;2024-03-07T11:02:49;102506.25;;;19.94;63.98
59170;BME280;52474;52.236;5.114;2024-03-07T11:05:18;102507.16;;;19.58;69.96
59170;BME280;52474;52.236;5.114;2024-03-07T11:07:44;102509.25;;;22.08;66.50
59170;BME280;52474;52.236;5.114;2024-03-07T11:10:10;102496.41;;;21.94;64.68
59170;BME280;52474;52.236;5.114;2024-03-07T11:12:39;102492.28;;;22.41;61.86
59170;BME280;52474;52.236;5.114;2024-03-07T11:15:08;102491.28;;;20.46;68.78
59170;BME280;52474;52.236;5.114;2024-03-07T11:17:44;102503.88;;;16.80;73.60
59170;BME280;52474;52.236;5.114;2024-03-07T11:20:21;102494.94;;;19.73;78.05
59170;BME280;52474;52.236;5.114;2024-03-07T11:22:48;102472.22;;;23.24;66.58
59170;BME280;52474;52.236;5.114;2024-03-07T11:25:18;102475.56;;;22.54;57.93
59170;BME280;52474;52.236;5.114;2024-03-07T11:27:58;102482.16;;;23.94;60.25
59170;BME280;52474;52.236;5.114;2024-03-07T11:30:24;102479.47;;;20.21;65.11
59170;BME280;52474;52.236;5.114;2024-03-07T11:32:52;102481.50;;;20.45;70.38
59170;BME280;52474;52.236;5.114;2024-03-07T11:35:30;102471.53;;;21.15;64.77
59170;BME280;52474;52.236;5.114;2024-03-07T11:37:58;102476.47;;;20.94;64.46
59170;BME280;52474;52.236;5.114;2024-03-07T11:42:52;102476.78;;;17.75;72.35
59170;BME280;52474;52.236;5.114;2024-03-07T11:45:19;102480.72;;;15.61;98.79
59170;BME280;52474;52.236;5.114;2024-03-07T11:47:55;102464.13;;;16.97;86.99
59170;BME280;52474;52.236;5.114;2024-03-07T11:50:29;102454.53;;;15.99;95.90
59170;BME280;52474;52.236;5.114;2024-03-07T11:53:01;102452.72;;;21.66;67.66
59170;BME280;52474;52.236;5.114;2024-03-07T11:55:27;102449.59;;;22.28;62.93
59170;BME280;52474;52.236;5.114;2024-03-07T11:58:10;102442.00;;;19.73;70.65
59170;BME280;52474;52.236;5.114;2024-03-07T12:00:44;102438.25;;;21.33;64.50
59170;BME280;52474;52.236;5.114;2024-03-07T12:03:14;102432.28;;;21.05;71.68
59170;BME280;52474;52.236;5.114;2024-03-07T12:05:43;102432.09;;;20.10;69.37
59170;BME280;52474;52.236;5.114;2024-03-07T12:08:10;102434.50;;;18.18;70.23
59170;BME280;52474;52.236;5.114;2024-03-07T12:10:42;102423.53;;;18.78;75.46
59170;BME280;52474;52.236;5.114;2024-03-07T12:13:11;102430.41;;;19.73;68.48
59170;BME280;52474;52.236;5.114;2024-03-07T12:15:38;102420.50;;;20.53;65.34
59170;BME280;52474;52.236;5.114;2024-03-07T12:18:05;102416.84;;;20.89;66.35
59170;BME280;52474;52.236;5.114;2024-03-07T12:20:36;102411.75;;;17.04;79.48
59170;BME280;52474;52.236;5.114;2024-03-07T12:23:03;102413.66;;;19.16;76.13
59170;BME280;52474;52.236;5.114;2024-03-07T12:25:31;102409.16;;;20.42;70.84
59170;BME280;52474;52.236;5.114;2024-03-07T12:28:11;102404.88;;;19.14;67.61
59170;BME280;52474;52.236;5.114;2024-03-07T12:30:57;102396.78;;;19.69;69.09
59170;BME280;52474;52.236;5.114;2024-03-07T12:33:23;102384.53;;;19.11;72.22
59170;BME280;52474;52.236;5.114;2024-03-07T12:35:54;102378.16;;;20.55;68.15
59170;BME280;52474;52.236;5.114;2024-03-07T12:38:36;102355.88;;;20.79;63.92
59170;BME280;52474;52.236;5.114;2024-03-07T12:41:09;102368.56;;;19.37;67.56
59170;BME280;52474;52.236;5.114;2024-03-07T12:43:42;102376.38;;;19.30;66.01
59170;BME280;52474;52.236;5.114;2024-03-07T12:46:11;102362.91;;;20.20;67.74
59170;BME280;52474;52.236;5.114;2024-03-07T12:48:38;102360.19;;;20.38;68.41
59170;BME280;52474;52.236;5.114;2024-03-07T12:51:04;102348.38;;;18.31;76.09
59170;BME280;52474;52.236;5.114;2024-03-07T12:53:30;102360.16;;;16.19;81.51
59170;BME280;52474;52.236;5.114;2024-03-07T12:55:57;102349.41;;;14.79;100.00